Flight Track Log - Related Links

Times and Time Zones

All times are in EDT time to prevent confusion due to time zone crossing. See the UAL464 flight status page for this flight to view local times or setup timezone preferences in your user account.


Time Position Orientation Groundspeed Altitude Reporting Facility
EDT Latitude Longitude Course Direction KTS MPH feet Rate Location/Type
Thu 09:25:11 PM 29.9639 -95.3433 98° East 172 198 900  Level Houston Center
Thu 09:26:08 PM 29.9378 -95.2989 124° Southeast 208 239 2,800 2,288 Climbing Houston Center
Thu 09:27:00 PM 29.9289 -94.9890 97° East  Level FlightAware Approximate
Thu 09:27:09 PM 29.9189 -95.2247 106° East 250 288 5,400  Level Houston Center
Thu 09:28:00 PM 29.9173 -94.8730 97° East  Level FlightAware Approximate
Thu 09:28:10 PM 29.9133 -95.1358 94° East 273 314 8,500  Level Houston Center
Thu 09:29:00 PM 29.9075 -94.7568 95° East  Level FlightAware Approximate
Thu 09:29:10 PM 29.9081 -95.0392 94° East 291 335 10,900  Level Houston Center
Thu 09:30:00 PM 29.8970 -94.6407 98° East  Level FlightAware Approximate
Thu 09:30:11 PM 29.9006 -94.9219 94° East 361 415 12,600  Level Houston Center
Thu 09:31:12 PM 29.8983 -94.8000 91° East 378 435 15,100 2,164 Climbing Houston Center
Thu 09:32:13 PM 29.9069 -94.6719 86° East 398 458 17,000 1,785 Climbing Houston Center
Thu 09:33:13 PM 29.9167 -94.5392 85° East 413 475 18,700 1,800 Climbing Houston Center
Thu 09:34:13 PM 29.9261 -94.4050 85° East 430 495 20,600 1,736 Climbing Houston Center
Thu 09:35:14 PM 29.9356 -94.2644 86° East 440 506 22,200 1,525 Climbing Houston Center
Thu 09:36:15 PM 29.9472 -94.0881 86° East 461 531 23,700 1,537 Climbing Houston Center
Thu 09:37:15 PM 29.9569 -93.9378 86° East 472 543 25,300 1,388 Climbing Houston Center
Thu 09:38:16 PM 29.9672 -93.7844 86° East 481 554 26,500 1,537 Climbing Houston Center
Thu 09:39:16 PM 29.9767 -93.6286 86° East 489 563 28,400 1,785 Climbing Houston Center
Thu 09:40:17 PM 29.9842 -93.4761 87° East 484 557 30,100 1,279 Climbing Houston Center
Thu 09:41:18 PM 29.9942 -93.3253 86° East 479 551 31,000 397 Climbing Houston Center
Thu 09:42:18 PM 30.0025 -93.1753 86° East 474 545 30,900  Descending Houston Center
Thu 09:43:19 PM 30.0111 -93.0242 86° East 477 549 31,000 50 Climbing Houston Center
Thu 09:44:19 PM 30.0208 -92.8744 86° East 472 543 31,000  Level Houston Center
Thu 09:45:20 PM 30.0286 -92.7217 87° East 477 549 31,000  Level Houston Center
Thu 09:46:21 PM 30.0392 -92.5689 85° East 478 550 31,000 -446 Level Houston Center
Thu 09:47:21 PM 30.0475 -92.4175 86° East 477 549 30,100 -1,240 Descending Houston Center
Thu 09:48:22 PM 30.0550 -92.2644 87° East 477 549 28,500 -2,016 Descending Houston Center
Thu 09:49:23 PM 30.0661 -92.0833 86° East 475 547 26,000 -2,182 Descending Houston Center
Thu 09:50:23 PM 30.0706 -91.9375 88° East 464 534 24,100 -1,934 Descending Houston Center
Thu 09:51:24 PM 30.0786 -91.7953 86° East 448 516 22,100 -1,934 Descending Houston Center
Thu 09:52:24 PM 30.0850 -91.6594 87° East 439 505 20,200 -1,884 Descending Houston Center
Thu 09:53:25 PM 30.0922 -91.5228 86° East 430 495 18,300 -1,918 Descending Houston Center
Thu 09:54:26 PM 30.0989 -91.3911 87° East 418 481 16,300 -1,884 Descending Houston Center
Thu 09:55:26 PM 30.1047 -91.2639 87° East 403 464 14,500 -1,871 Descending Houston Center
Thu 09:55:59 PM 30.1078 -91.1906 87° East 380 437 13,400 -1,841 Descending Houston Center
Thu 09:56:54 PM 30.1114 -91.0822 88° East 362 417 11,800 -1,364 Descending Houston Center
Thu 09:57:27 PM 30.1136 -91.0300 87° East 362 417 11,400 -894 Descending Houston Center
Thu 09:58:28 PM 30.1106 -90.9314 92° East 320 368 10,400 -1,377 Descending Houston Center
Thu 09:59:29 PM 30.0950 -90.8378 101° East 300 345 8,600 -1,983 Descending Houston Center
Thu 10:00:29 PM 30.0825 -90.7497 99° East 287 330 6,400 -2,182 Descending Houston Center
Thu 10:01:30 PM 30.0678 -90.6639 101° East 280 322 4,200 -1,230 Descending Houston Center
Thu 10:02:31 PM 30.0556 -90.5800 100° East 273 314 3,900 -198 Descending Houston Center
Thu 10:03:31 PM 30.0422 -90.5083 102° East 250 288 3,800 -100 Descending Houston Center

Login

Don't have an account? Register now (free) for customized features, flight alerts, and more!